createdAt,value
2017-05-26T00:00:26.940Z,0
2017-05-26T00:01:37.291Z,0
2017-05-26T00:02:47.636Z,0
2017-05-26T00:03:57.999Z,0
2017-05-26T00:05:08.024Z,0
2017-05-26T00:06:18.105Z,0
2017-05-26T00:07:28.454Z,0
2017-05-26T00:08:38.786Z,0
2017-05-26T00:09:48.827Z,0
2017-05-26T00:10:58.874Z,0
2017-05-26T00:12:09.233Z,0
2017-05-26T00:13:19.297Z,0
2017-05-26T00:14:29.325Z,0
2017-05-26T00:15:39.663Z,0
2017-05-26T00:16:49.708Z,0
2017-05-26T00:17:59.809Z,0
2017-05-26T00:19:09.851Z,0
2017-05-26T00:20:20.198Z,0
2017-05-26T00:21:30.605Z,0
2017-05-26T00:22:40.649Z,0
2017-05-26T00:23:50.373Z,0
2017-05-26T00:25:00.740Z,0
2017-05-26T00:26:11.097Z,0
2017-05-26T00:27:20.814Z,0
2017-05-26T00:28:31.160Z,0
2017-05-26T00:29:41.246Z,0
2017-05-26T00:30:51.273Z,0
2017-05-26T00:32:01.637Z,0
2017-05-26T00:33:11.989Z,0
2017-05-26T00:34:22.340Z,0
2017-05-26T00:35:32.521Z,0
2017-05-26T00:36:42.882Z,0
2017-05-26T00:37:52.914Z,0
2017-05-26T00:39:03.260Z,0
2017-05-26T00:40:13.659Z,0
2017-05-26T00:41:23.705Z,0
2017-05-26T00:42:33.739Z,0
2017-05-26T00:43:44.086Z,0
2017-05-26T00:44:54.432Z,0
2017-05-26T00:46:04.811Z,0
2017-05-26T00:47:14.841Z,0
2017-05-26T00:48:24.867Z,0
2017-05-26T00:49:34.903Z,0
2017-05-26T00:50:45.292Z,0
2017-05-26T00:51:55.667Z,0
2017-05-26T00:53:05.704Z,0
2017-05-26T00:54:15.729Z,0
2017-05-26T00:55:25.768Z,0
2017-05-26T00:56:35.866Z,0
2017-05-26T00:57:45.581Z,0
2017-05-26T00:58:55.868Z,0
2017-05-26T01:00:05.888Z,0
2017-05-26T01:01:15.934Z,0
2017-05-26T01:02:25.963Z,0
2017-05-26T01:03:36.316Z,0
2017-05-26T01:04:46.664Z,0
2017-05-26T01:05:57.011Z,0
2017-05-26T01:07:07.044Z,0
2017-05-26T01:08:17.076Z,0
2017-05-26T01:09:27.421Z,0
2017-05-26T01:10:37.188Z,0
2017-05-26T01:11:47.546Z,0
2017-05-26T01:12:57.885Z,0
2017-05-26T01:14:08.247Z,0
2017-05-26T01:15:18.306Z,0
2017-05-26T01:16:28.644Z,0
2017-05-26T01:17:38.980Z,0
2017-05-26T01:18:49.327Z,0
2017-05-26T01:19:59.684Z,0
2017-05-26T01:21:10.010Z,0
2017-05-26T01:22:20.351Z,0
2017-05-26T01:23:30.702Z,0
2017-05-26T01:24:41.050Z,0
2017-05-26T01:25:51.097Z,0
2017-05-26T01:27:01.444Z,0
2017-05-26T01:28:12.046Z,0
2017-05-26T01:29:22.393Z,0
2017-05-26T01:30:32.745Z,0
2017-05-26T01:31:43.097Z,0
2017-05-26T01:32:53.442Z,0
2017-05-26T01:34:03.799Z,0
2017-05-26T01:35:13.512Z,0
2017-05-26T01:36:23.596Z,0
2017-05-26T01:37:33.631Z,0
2017-05-26T01:38:43.659Z,0
2017-05-26T01:39:54.060Z,0
2017-05-26T01:41:04.405Z,0
2017-05-26T01:42:14.448Z,0
2017-05-26T01:43:24.481Z,0
2017-05-26T01:44:34.842Z,0
2017-05-26T01:45:44.618Z,0
2017-05-26T01:46:54.975Z,0
2017-05-26T01:48:05.338Z,0
2017-05-26T01:49:15.694Z,0
2017-05-26T01:50:25.734Z,0
2017-05-26T01:51:36.082Z,0
2017-05-26T01:52:46.424Z,0
2017-05-26T01:53:56.450Z,0
2017-05-26T01:55:06.493Z,0
2017-05-26T01:56:16.529Z,0
2017-05-26T01:57:26.877Z,0
2017-05-26T01:58:37.212Z,0
2017-05-26T01:59:47.580Z,0
2017-05-26T02:00:57.614Z,0
2017-05-26T02:02:07.953Z,0
2017-05-26T02:03:18.308Z,0
2017-05-26T02:04:28.346Z,0
2017-05-26T02:05:38.369Z,0
2017-05-26T02:06:48.755Z,0
2017-05-26T02:07:59.100Z,0
2017-05-26T02:09:09.188Z,0
2017-05-26T02:10:19.215Z,0
2017-05-26T02:11:29.562Z,0
2017-05-26T02:12:39.911Z,0
2017-05-26T02:13:50.266Z,0
2017-05-26T02:15:00.359Z,0
2017-05-26T02:16:10.704Z,0
2017-05-26T02:17:21.057Z,0
2017-05-26T02:18:31.397Z,0
2017-05-26T02:19:41.430Z,0
2017-05-26T02:20:51.786Z,0
2017-05-26T02:22:01.823Z,0
2017-05-26T02:23:12.173Z,0
2017-05-26T02:24:22.507Z,0
2017-05-26T02:25:32.900Z,0
2017-05-26T02:26:42.967Z,0
2017-05-26T02:27:53.322Z,0
2017-05-26T02:29:03.362Z,4
2017-05-26T02:30:13.700Z,4
2017-05-26T02:31:23.732Z,0
2017-05-26T02:32:34.122Z,4
2017-05-26T02:33:44.159Z,4
2017-05-26T02:34:54.508Z,4
2017-05-26T02:36:04.230Z,4
2017-05-26T02:37:14.581Z,4
2017-05-26T02:38:24.937Z,4
2017-05-26T02:39:35.330Z,4
2017-05-26T02:40:45.362Z,8
2017-05-26T02:41:55.404Z,8
2017-05-26T02:43:05.754Z,8
2017-05-26T02:44:16.093Z,12
2017-05-26T02:45:26.122Z,12
2017-05-26T02:46:36.466Z,16
2017-05-26T02:47:46.820Z,20
2017-05-26T02:48:56.856Z,20
2017-05-26T02:50:07.255Z,24
2017-05-26T02:51:17.291Z,28
2017-05-26T02:52:27.067Z,32
2017-05-26T02:53:37.094Z,36
2017-05-26T02:54:47.440Z,40
2017-05-26T02:55:57.784Z,48
2017-05-26T02:57:07.825Z,56
2017-05-26T02:58:18.168Z,60
2017-05-26T02:59:28.576Z,68
2017-05-26T03:00:38.921Z,76
2017-05-26T03:01:48.966Z,88
2017-05-26T03:33:04.904Z,664
2017-05-26T03:34:14.925Z,704
2017-05-26T03:35:25.255Z,752
2017-05-26T03:36:35.592Z,812
2017-05-26T03:37:45.923Z,872
2017-05-26T03:38:56.264Z,928
2017-05-26T03:40:06.625Z,984
2017-05-26T03:41:16.650Z,1048
2017-05-26T03:42:26.990Z,1104
2017-05-26T03:43:37.335Z,1148
2017-05-26T03:44:47.690Z,1192
2017-05-26T03:45:58.055Z,1264
2017-05-26T03:47:08.387Z,1304
2017-05-26T03:48:18.433Z,1332
2017-05-26T03:49:28.795Z,1364
2017-05-26T03:50:38.874Z,1392
2017-05-26T03:51:48.913Z,1448
2017-05-26T03:52:58.937Z,1524
2017-05-26T03:54:08.643Z,1616
2017-05-26T03:55:18.994Z,1700
2017-05-26T03:56:29.388Z,1764
2017-05-26T03:57:39.438Z,1808
2017-05-26T03:58:49.782Z,1864
2017-05-26T04:00:00.121Z,1944
2017-05-26T04:01:10.167Z,1996
2017-05-26T04:02:20.210Z,1992
2017-05-26T04:03:30.566Z,1996
2017-05-26T04:04:40.602Z,1996
2017-05-26T04:05:50.955Z,2004
2017-05-26T04:07:01.297Z,2028
2017-05-26T04:08:11.432Z,2092
2017-05-26T04:09:21.837Z,2228
2017-05-26T04:10:32.186Z,2380
2017-05-26T04:11:42.537Z,2400
2017-05-26T04:12:52.874Z,2436
2017-05-26T04:14:02.909Z,2448
2017-05-26T04:15:13.254Z,2652
2017-05-26T04:16:23.306Z,2780
2017-05-26T04:17:33.333Z,3024
2017-05-26T04:18:43.678Z,3792
2017-05-26T04:19:54.081Z,4036
2017-05-26T04:21:04.425Z,5872
2017-05-26T04:22:14.771Z,6060
2017-05-26T04:23:25.212Z,7728
2017-05-26T04:24:35.557Z,6492
2017-05-26T04:25:45.644Z,4872
2017-05-26T04:26:55.988Z,4376
2017-05-26T04:28:06.332Z,4264
2017-05-26T04:29:16.366Z,4560
2017-05-26T04:30:26.084Z,9028
2017-05-26T04:31:36.169Z,4060
2017-05-26T04:32:46.201Z,8064
2017-05-26T04:33:56.558Z,7164
2017-05-26T04:35:06.900Z,3996
2017-05-26T04:36:17.253Z,4684
2017-05-26T04:37:27.286Z,4372
2017-05-26T04:38:37.643Z,4412
2017-05-26T04:39:47.682Z,3876
2017-05-26T04:40:58.039Z,3860
2017-05-26T04:42:08.405Z,6484
2017-05-26T04:43:18.758Z,12304
2017-05-26T04:44:29.098Z,15072
2017-05-26T04:45:39.455Z,15520
2017-05-26T04:46:49.804Z,15392
2017-05-26T04:48:00.153Z,15392
2017-05-26T04:49:10.246Z,15104
2017-05-26T04:50:20.272Z,14816
2017-05-26T04:51:30.298Z,14848
2017-05-26T04:52:40.649Z,14944
2017-05-26T04:53:50.672Z,14816
2017-05-26T04:55:01.074Z,15328
2017-05-26T04:56:11.433Z,16128
2017-05-26T04:57:21.784Z,16000
2017-05-26T04:58:31.810Z,15872
2017-05-26T04:59:42.158Z,15520
2017-05-26T05:00:52.549Z,15328
2017-05-26T05:02:02.910Z,15168
2017-05-26T05:03:12.964Z,15008
2017-05-26T05:04:23.323Z,15264
2017-05-26T05:05:33.698Z,15520
2017-05-26T05:06:44.103Z,15296
2017-05-26T05:07:54.156Z,15424
2017-05-26T05:09:03.899Z,14880
2017-05-26T05:10:14.264Z,3200
2017-05-26T05:11:23.987Z,12236
2017-05-26T05:12:34.655Z,15136
2017-05-26T05:13:44.898Z,15360
2017-05-26T05:14:55.255Z,15200
2017-05-26T05:16:05.302Z,15168
2017-05-26T05:17:15.649Z,15328
2017-05-26T05:18:26.017Z,15936
2017-05-26T05:19:36.380Z,15712
2017-05-26T05:20:46.729Z,15232
2017-05-26T05:21:56.755Z,15168
2017-05-26T05:23:06.797Z,15424
2017-05-26T05:24:17.203Z,15552
2017-05-26T05:25:27.236Z,15648
2017-05-26T05:26:37.274Z,15936
2017-05-26T05:27:47.617Z,15904
2017-05-26T05:28:57.657Z,15872
2017-05-26T05:30:08.108Z,15712
2017-05-26T05:31:18.471Z,15584
2017-05-26T05:32:28.824Z,15552
2017-05-26T05:33:39.174Z,15488
2017-05-26T05:34:49.551Z,15296
2017-05-26T05:35:59.896Z,15200
2017-05-26T05:37:10.257Z,15392
2017-05-26T05:38:20.288Z,15296
2017-05-26T05:39:30.342Z,15232
2017-05-26T05:40:40.769Z,15264
2017-05-26T05:41:50.856Z,15168
2017-05-26T05:43:01.222Z,15200
2017-05-26T05:44:10.628Z,14976
2017-05-26T05:45:20.969Z,14848
2017-05-26T05:46:31.338Z,14944
2017-05-26T05:47:41.743Z,15168
2017-05-26T05:48:51.796Z,15264
2017-05-26T05:50:02.143Z,15264
2017-05-26T05:51:11.867Z,15296
2017-05-26T05:52:22.212Z,15104
2017-05-26T05:53:32.242Z,15072
2017-05-26T05:54:42.599Z,15104
2017-05-26T05:55:52.638Z,15200
2017-05-26T05:57:02.993Z,15040
2017-05-26T05:58:13.345Z,14976
2017-05-26T05:59:23.127Z,14652
2017-05-26T06:00:32.858Z,14388
2017-05-26T06:01:42.898Z,14292
2017-05-26T06:02:53.252Z,14184
2017-05-26T06:04:03.294Z,14108
2017-05-26T06:05:13.656Z,13952
2017-05-26T06:06:23.702Z,13900
2017-05-26T06:07:34.050Z,13868
2017-05-26T06:08:44.407Z,13728
2017-05-26T06:09:54.754Z,13476
2017-05-26T06:11:05.160Z,13280
2017-05-26T06:12:15.501Z,11248
2017-05-26T06:13:25.748Z,6900
2017-05-26T06:14:36.096Z,4296
2017-05-26T06:15:45.551Z,4516
2017-05-26T06:16:55.893Z,4784
2017-05-26T06:18:05.925Z,4752
2017-05-26T06:19:16.280Z,4808
2017-05-26T06:20:26.637Z,4980
2017-05-26T06:21:36.992Z,5604
2017-05-26T06:22:47.386Z,7600
2017-05-26T06:23:57.744Z,10000
2017-05-26T06:25:08.089Z,10780
2017-05-26T06:26:18.673Z,10880
2017-05-26T06:27:29.013Z,10792
2017-05-26T06:28:39.424Z,10760
2017-05-26T06:29:49.766Z,10620
2017-05-26T06:31:00.120Z,10480
2017-05-26T06:32:10.170Z,10308
2017-05-26T06:33:20.518Z,10192
2017-05-26T06:34:30.613Z,10012
2017-05-26T06:35:40.961Z,9860
2017-05-26T06:36:51.305Z,9656
2017-05-26T06:38:01.665Z,9460
2017-05-26T06:39:11.712Z,9272
2017-05-26T06:40:22.119Z,9100
2017-05-26T06:41:31.842Z,8940
2017-05-26T06:42:41.876Z,8764
2017-05-26T06:43:51.939Z,8612
2017-05-26T06:45:01.977Z,8408
2017-05-26T06:46:12.368Z,8256
2017-05-26T06:47:22.400Z,8164
2017-05-26T06:48:32.760Z,7996
2017-05-26T06:49:42.802Z,7836
2017-05-26T06:50:52.843Z,7704
2017-05-26T06:52:03.201Z,7548
2017-05-26T06:53:13.542Z,7388
2017-05-26T06:54:23.888Z,7260
2017-05-26T06:55:33.931Z,7112
2017-05-26T06:56:43.967Z,7000
2017-05-26T06:57:54.361Z,6860
2017-05-26T06:59:04.696Z,6784
2017-05-26T07:00:14.743Z,6540
2017-05-26T07:01:25.087Z,6636
2017-05-26T07:02:35.442Z,6576
2017-05-26T07:03:45.849Z,5232
2017-05-26T07:04:56.195Z,6012
2017-05-26T07:06:06.543Z,5924
2017-05-26T07:07:16.581Z,6904
2017-05-26T07:08:26.616Z,6784
2017-05-26T07:09:37.027Z,6472
2017-05-26T07:10:47.379Z,6096
2017-05-26T07:11:57.747Z,6348
2017-05-26T07:13:07.789Z,6140
2017-05-26T07:14:18.150Z,6016
2017-05-26T07:15:28.558Z,6056
2017-05-26T07:16:38.948Z,6160
2017-05-26T07:17:49.301Z,6296
2017-05-26T07:18:59.673Z,6488
2017-05-26T07:20:10.028Z,6716
2017-05-26T07:21:20.384Z,6908
2017-05-26T07:22:30.745Z,7084
2017-05-26T07:23:41.137Z,7276
2017-05-26T07:24:51.500Z,7568
2017-05-26T07:26:01.902Z,7924
2017-05-26T07:27:12.311Z,8352
2017-05-26T07:28:22.676Z,8676
2017-05-26T07:29:33.032Z,8996
2017-05-26T07:30:43.369Z,9512
2017-05-26T07:31:53.726Z,9676
2017-05-26T07:33:03.768Z,9380
2017-05-26T07:34:13.809Z,9668
2017-05-26T07:35:23.840Z,9480
2017-05-26T07:36:34.189Z,9452
2017-05-26T07:37:43.921Z,9160
2017-05-26T07:38:53.991Z,10364
2017-05-26T07:40:04.345Z,8784
2017-05-26T07:41:14.726Z,8960
2017-05-26T07:42:25.099Z,9200
2017-05-26T07:43:35.459Z,8936
2017-05-26T07:44:45.877Z,8244
2017-05-26T07:45:56.249Z,6780
2017-05-26T07:47:06.619Z,7604
2017-05-26T07:48:16.981Z,7360
2017-05-26T07:49:27.345Z,6248
2017-05-26T07:50:37.755Z,6780
2017-05-26T07:51:47.184Z,6284
2017-05-26T07:52:57.240Z,5384
2017-05-26T07:54:07.280Z,5708
2017-05-26T07:55:17.633Z,6924
2017-05-26T07:56:28.038Z,6932
2017-05-26T07:57:38.384Z,7012
2017-05-26T07:58:48.435Z,7188
2017-05-26T07:59:58.805Z,7456
2017-05-26T08:01:09.170Z,7856
2017-05-26T08:02:19.612Z,8376
2017-05-26T08:03:29.659Z,8944
2017-05-26T08:04:39.693Z,9364
2017-05-26T08:05:50.067Z,9364
2017-05-26T08:07:00.463Z,8000
2017-05-26T08:08:10.837Z,8384
2017-05-26T08:09:20.894Z,7572
2017-05-26T08:10:30.949Z,6168
2017-05-26T08:11:41.300Z,7964
2017-05-26T08:12:51.650Z,5456
2017-05-26T08:14:02.076Z,5068
2017-05-26T08:15:12.111Z,5940
2017-05-26T08:16:22.503Z,4912
2017-05-26T08:17:32.973Z,4776
2017-05-26T08:18:43.342Z,5608
2017-05-26T08:19:53.760Z,7644
2017-05-26T08:21:03.812Z,7592
2017-05-26T08:22:14.175Z,7572
2017-05-26T08:23:24.245Z,7680
2017-05-26T08:24:34.615Z,7752
2017-05-26T08:25:44.696Z,7908
2017-05-26T08:26:55.058Z,8160
2017-05-26T08:28:04.793Z,8396
2017-05-26T08:29:14.833Z,8672
2017-05-26T08:30:24.877Z,8812
2017-05-26T08:31:35.236Z,8896
2017-05-26T08:32:44.971Z,8988
2017-05-26T08:33:55.324Z,9276
2017-05-26T08:35:05.684Z,9620
2017-05-26T08:36:16.035Z,8756
2017-05-26T08:37:26.400Z,7808
2017-05-26T08:38:36.765Z,10008
2017-05-26T08:39:47.128Z,9408
2017-05-26T08:40:57.484Z,6732
2017-05-26T08:42:07.857Z,8740
2017-05-26T08:43:18.259Z,8156
2017-05-26T08:44:28.616Z,6576
2017-05-26T08:45:38.980Z,4636
2017-05-26T08:46:48.727Z,4336
2017-05-26T08:47:59.330Z,5800
2017-05-26T08:49:09.739Z,3800
2017-05-26T08:50:20.162Z,6940
2017-05-26T08:51:30.528Z,6352
2017-05-26T08:52:40.879Z,5944
2017-05-26T08:53:51.235Z,6724
2017-05-26T08:55:01.292Z,6844
2017-05-26T08:56:11.661Z,6992
2017-05-26T08:57:21.716Z,7112
2017-05-26T08:58:31.818Z,7324
2017-05-26T08:59:42.198Z,7500
2017-05-26T09:00:52.636Z,7656
2017-05-26T09:02:02.995Z,7788
2017-05-26T09:03:13.352Z,7932
2017-05-26T09:04:23.735Z,8140
2017-05-26T09:05:33.463Z,8216
2017-05-26T09:06:43.870Z,8744
2017-05-26T09:07:53.916Z,9176
2017-05-26T09:09:04.273Z,9704
2017-05-26T09:10:14.334Z,10172
2017-05-26T09:11:24.684Z,10656
2017-05-26T09:12:35.108Z,10732
2017-05-26T09:13:45.458Z,11016
2017-05-26T09:14:55.819Z,11096
2017-05-26T09:16:06.199Z,10996
2017-05-26T09:17:16.256Z,7864
2017-05-26T09:18:26.354Z,7744
2017-05-26T09:19:36.715Z,7788
2017-05-26T09:20:47.083Z,7468
2017-05-26T09:21:57.140Z,7260
2017-05-26T09:23:07.525Z,7716
2017-05-26T09:24:17.587Z,9900
2017-05-26T09:25:27.939Z,7004
2017-05-26T09:26:37.988Z,6532
2017-05-26T09:27:48.343Z,6264
2017-05-26T09:28:58.952Z,6172
2017-05-26T09:30:09.312Z,6256
2017-05-26T09:31:19.673Z,9708
2017-05-26T09:32:29.731Z,9028
2017-05-26T09:33:39.774Z,9172
2017-05-26T09:34:50.134Z,9660
2017-05-26T09:36:00.185Z,10124
2017-05-26T09:37:10.546Z,10160
2017-05-26T09:38:20.947Z,10380
2017-05-26T09:39:31.314Z,10696
2017-05-26T09:40:41.673Z,10816
2017-05-26T09:41:52.017Z,7104
2017-05-26T09:43:02.056Z,6900
2017-05-26T09:44:12.450Z,9764
2017-05-26T09:45:22.821Z,7404
2017-05-26T09:46:33.185Z,7324
2017-05-26T09:47:43.605Z,10904
2017-05-26T09:48:53.965Z,10480
2017-05-26T09:50:03.705Z,9952
2017-05-26T09:51:13.742Z,9584
2017-05-26T09:52:23.791Z,9264
2017-05-26T09:53:33.837Z,5464
2017-05-26T09:54:43.917Z,9008
2017-05-26T09:55:53.961Z,9136
2017-05-26T09:57:04.314Z,9232
2017-05-26T09:58:14.684Z,9364
2017-05-26T09:59:27.805Z,9832
2017-05-26T10:00:38.219Z,10264
2017-05-26T10:01:48.581Z,10644
2017-05-26T10:02:58.938Z,10844
2017-05-26T10:04:08.680Z,10060
2017-05-26T10:05:19.098Z,10860
2017-05-26T10:06:29.472Z,10848
2017-05-26T10:07:39.510Z,6716
2017-05-26T10:08:49.867Z,6532
2017-05-26T10:10:00.230Z,6680
2017-05-26T10:11:10.630Z,8608
2017-05-26T10:12:20.683Z,7600
2017-05-26T10:13:31.050Z,10328
2017-05-26T10:14:41.344Z,9980
2017-05-26T10:15:51.387Z,11272
2017-05-26T10:17:01.747Z,11444
2017-05-26T10:18:12.107Z,11488
2017-05-26T10:19:22.462Z,11408
2017-05-26T10:20:32.200Z,11216
2017-05-26T10:21:42.559Z,7908
2017-05-26T10:22:53.044Z,6936
2017-05-26T10:24:03.130Z,9868
2017-05-26T10:25:13.486Z,7828
2017-05-26T10:26:23.862Z,12220
2017-05-26T10:27:33.601Z,11548
2017-05-26T10:28:44.068Z,7988
2017-05-26T10:29:54.435Z,11872
2017-05-26T10:31:04.777Z,7184
2017-05-26T10:32:14.837Z,7176
2017-05-26T10:33:24.881Z,7600
2017-05-26T10:34:35.300Z,6704
2017-05-26T10:35:45.649Z,8480
2017-05-26T10:36:56.021Z,10396
2017-05-26T10:38:06.394Z,5756
2017-05-26T10:39:16.774Z,6952
2017-05-26T10:40:26.876Z,10524
2017-05-26T10:41:37.242Z,10868
2017-05-26T10:42:47.606Z,10992
2017-05-26T10:43:57.661Z,11168
2017-05-26T10:45:08.012Z,10896
2017-05-26T10:46:18.413Z,10952
2017-05-26T10:47:28.772Z,10852
2017-05-26T10:48:38.817Z,11740
2017-05-26T10:49:49.170Z,12180
2017-05-26T10:50:59.289Z,7704
2017-05-26T10:52:09.388Z,7564
2017-05-26T10:53:19.756Z,7424
2017-05-26T10:54:30.118Z,7360
2017-05-26T10:55:40.553Z,11800
2017-05-26T10:56:50.906Z,11460
2017-05-26T10:58:01.277Z,6596
2017-05-26T10:59:11.317Z,5968
2017-05-26T11:00:21.736Z,5656
2017-05-26T11:01:32.077Z,9808
2017-05-26T11:02:42.122Z,6160
2017-05-26T11:03:52.476Z,10304
2017-05-26T11:05:02.839Z,10556
2017-05-26T11:06:13.250Z,10972
2017-05-26T11:07:23.605Z,11432
2017-05-26T11:08:33.653Z,11892
2017-05-26T11:09:43.704Z,12444
2017-05-26T11:10:54.071Z,11248
2017-05-26T11:12:04.441Z,8136
2017-05-26T11:13:13.864Z,7312
2017-05-26T11:14:24.237Z,6848
2017-05-26T11:15:34.588Z,7080
2017-05-26T11:16:44.950Z,6216
2017-05-26T11:17:55.365Z,5616
2017-05-26T11:19:05.107Z,5260
2017-05-26T11:20:15.475Z,5196
2017-05-26T11:21:25.821Z,5288
2017-05-26T11:22:36.192Z,10244
2017-05-26T11:23:46.596Z,10608
2017-05-26T11:24:56.971Z,6252
2017-05-26T11:26:07.340Z,9984
2017-05-26T11:27:17.694Z,10976
2017-05-26T11:28:28.069Z,11276
2017-05-26T11:29:38.489Z,10828
2017-05-26T11:30:48.836Z,6284
2017-05-26T11:31:59.406Z,6884
2017-05-26T11:33:09.778Z,5416
2017-05-26T11:34:20.356Z,8028
2017-05-26T11:35:30.713Z,9780
2017-05-26T11:36:41.065Z,9548
2017-05-26T11:37:51.432Z,9548
2017-05-26T11:39:02.019Z,9552
2017-05-26T11:40:12.070Z,9688
2017-05-26T11:41:21.861Z,9948
2017-05-26T11:42:31.901Z,10512
2017-05-26T11:43:41.957Z,11132
2017-05-26T11:44:52.316Z,11796
2017-05-26T11:46:02.689Z,12136
2017-05-26T11:47:12.752Z,8380
2017-05-26T11:48:23.123Z,7056
2017-05-26T11:49:32.909Z,6988
2017-05-26T11:50:43.285Z,7216
2017-05-26T11:51:53.327Z,6656
2017-05-26T11:53:03.684Z,11036
2017-05-26T11:54:14.054Z,10564
2017-05-26T11:55:24.456Z,10592
2017-05-26T11:56:34.810Z,10524
2017-05-26T11:57:44.871Z,10940
2017-05-26T11:58:55.241Z,10772
2017-05-26T12:00:05.606Z,10696
2017-05-26T12:01:16.030Z,10424
2017-05-26T12:02:26.386Z,10160
2017-05-26T12:03:36.439Z,9768
2017-05-26T12:04:46.471Z,9568
2017-05-26T12:05:56.818Z,9648
2017-05-26T12:07:07.221Z,10012
2017-05-26T12:08:17.276Z,10256
2017-05-26T12:09:27.636Z,10860
2017-05-26T12:10:37.995Z,11400
2017-05-26T12:11:48.036Z,11520
2017-05-26T12:12:58.083Z,6932
2017-05-26T12:14:08.460Z,10972
2017-05-26T12:15:18.188Z,11448
2017-05-26T12:16:28.238Z,11372
2017-05-26T12:17:38.285Z,7680
2017-05-26T12:18:48.405Z,9732
2017-05-26T12:19:58.766Z,9540
2017-05-26T12:21:09.186Z,9488
2017-05-26T12:22:19.542Z,9564
2017-05-26T12:23:29.585Z,4928
2017-05-26T12:24:39.990Z,5220
2017-05-26T12:25:50.042Z,5256
2017-05-26T12:27:00.084Z,9592
2017-05-26T12:28:10.637Z,5416
2017-05-26T12:29:20.668Z,10324
2017-05-26T12:30:31.078Z,10512
2017-05-26T12:31:41.132Z,11156
2017-05-26T12:32:51.503Z,11160
2017-05-26T12:34:01.856Z,10992
2017-05-26T12:35:12.212Z,10836
2017-05-26T12:36:22.561Z,10640
2017-05-26T12:37:32.919Z,10348
2017-05-26T12:38:43.278Z,9864
2017-05-26T12:39:53.636Z,9896
2017-05-26T12:41:04.010Z,5424
2017-05-26T12:42:13.745Z,5060
2017-05-26T12:43:23.492Z,6612
2017-05-26T12:44:33.850Z,8940
2017-05-26T12:45:43.904Z,9416
2017-05-26T12:46:54.263Z,9116
2017-05-26T12:48:04.434Z,9080
2017-05-26T12:49:14.809Z,9216
2017-05-26T12:50:24.861Z,9148
2017-05-26T12:51:34.923Z,5876
2017-05-26T12:52:44.967Z,9432
2017-05-26T12:53:55.367Z,9344
2017-05-26T12:55:05.721Z,9328
2017-05-26T12:56:16.096Z,9288
2017-05-26T12:57:26.455Z,4704
2017-05-26T12:58:36.506Z,4844
2017-05-26T12:59:46.901Z,4244
2017-05-26T13:00:57.256Z,4716
2017-05-26T13:02:07.636Z,9220
2017-05-26T13:03:18.020Z,8988
2017-05-26T13:04:28.402Z,9260
2017-05-26T13:05:38.732Z,7260
2017-05-26T13:06:49.083Z,8988
2017-05-26T13:07:59.445Z,9048
2017-05-26T13:09:09.487Z,9044
2017-05-26T13:10:19.532Z,9032
2017-05-26T13:11:29.570Z,9208
2017-05-26T13:12:39.927Z,9372
2017-05-26T13:13:50.304Z,9708
2017-05-26T13:15:00.678Z,10124
2017-05-26T13:16:11.049Z,10332
2017-05-26T13:17:21.158Z,10572
2017-05-26T13:18:31.232Z,10528
2017-05-26T13:19:41.598Z,10316
2017-05-26T13:20:51.973Z,10112
2017-05-26T13:22:02.327Z,6396
2017-05-26T13:23:12.119Z,7868
2017-05-26T13:24:22.174Z,8836
2017-05-26T13:25:32.529Z,9276
2017-05-26T13:26:42.879Z,9176
2017-05-26T13:27:53.221Z,9040
2017-05-26T13:29:03.591Z,8784
2017-05-26T13:30:13.639Z,8612
2017-05-26T13:31:24.003Z,8360
2017-05-26T13:32:34.046Z,8368
2017-05-26T13:33:43.784Z,8396
2017-05-26T13:34:54.147Z,8268
2017-05-26T13:36:04.533Z,8536
2017-05-26T13:37:14.291Z,8788
2017-05-26T13:38:24.652Z,8948
2017-05-26T13:39:35.009Z,9028
2017-05-26T13:40:45.385Z,9212
2017-05-26T13:41:55.429Z,9496
2017-05-26T13:43:05.778Z,9592
2017-05-26T13:44:16.132Z,9804
2017-05-26T13:45:26.327Z,10096
2017-05-26T13:46:36.354Z,10252
2017-05-26T13:47:46.712Z,10320
2017-05-26T13:48:56.744Z,10264
2017-05-26T13:50:06.788Z,10100
2017-05-26T13:51:17.169Z,10016
2017-05-26T13:52:27.529Z,10004
2017-05-26T13:53:37.885Z,8360
2017-05-26T13:54:47.940Z,9720
2017-05-26T13:55:58.293Z,9524
2017-05-26T13:57:08.337Z,9168
2017-05-26T13:58:18.697Z,8840
2017-05-26T13:59:29.054Z,7336
2017-05-26T14:00:39.437Z,4996
2017-05-26T14:01:49.811Z,4884
2017-05-26T14:03:00.169Z,7568
2017-05-26T14:04:10.575Z,5140
2017-05-26T14:05:20.944Z,4668
2017-05-26T14:06:31.319Z,4616
2017-05-26T14:07:41.395Z,4732
2017-05-26T14:08:51.127Z,4684
2017-05-26T14:10:01.535Z,5104
2017-05-26T14:11:11.912Z,5352
2017-05-26T14:12:22.274Z,5420
2017-05-26T14:13:32.312Z,8932
2017-05-26T14:14:42.365Z,8168
2017-05-26T14:15:52.408Z,5348
2017-05-26T14:17:02.465Z,8596
2017-05-26T14:18:12.531Z,5568
2017-05-26T14:19:22.569Z,8640
2017-05-26T14:20:32.601Z,8916
2017-05-26T14:21:42.953Z,8812
2017-05-26T14:22:53.020Z,8564
2017-05-26T14:24:03.380Z,8068
2017-05-26T14:25:13.432Z,4832
2017-05-26T14:26:23.157Z,7740
2017-05-26T14:27:32.901Z,7360
2017-05-26T14:28:43.329Z,4220
2017-05-26T14:29:53.690Z,4184
2017-05-26T14:31:04.049Z,7316
2017-05-26T14:32:14.425Z,6936
2017-05-26T14:33:24.813Z,5120
2017-05-26T14:34:35.187Z,5988
2017-05-26T14:35:45.551Z,4820
2017-05-26T14:36:55.292Z,6596
2017-05-26T14:38:04.701Z,8316
2017-05-26T14:39:14.742Z,8692
2017-05-26T14:40:24.837Z,8856
2017-05-26T14:41:35.213Z,5888
2017-05-26T14:42:45.269Z,7872
2017-05-26T14:43:55.633Z,8388
2017-05-26T14:45:05.668Z,7600
2017-05-26T14:46:16.037Z,6956
2017-05-26T14:47:26.410Z,5416
2017-05-26T14:48:36.461Z,5420
2017-05-26T14:49:46.807Z,7332
2017-05-26T14:50:57.188Z,5388
2017-05-26T14:52:07.543Z,5248
2017-05-26T14:53:17.836Z,5292
2017-05-26T14:54:28.198Z,6408
2017-05-26T14:55:38.599Z,7700
2017-05-26T14:56:48.639Z,7644
2017-05-26T14:57:58.061Z,7588
2017-05-26T14:59:08.422Z,7420
2017-05-26T15:00:18.378Z,7368
2017-05-26T15:01:28.739Z,7336
2017-05-26T15:02:39.098Z,7524
2017-05-26T15:03:49.457Z,7488
2017-05-26T15:04:59.827Z,7556
2017-05-26T15:06:09.890Z,7308
2017-05-26T15:07:20.271Z,5668
2017-05-26T15:08:30.631Z,5956
2017-05-26T15:09:40.304Z,4620
2017-05-26T15:10:50.685Z,5924
2017-05-26T15:12:01.061Z,4532
2017-05-26T15:13:11.103Z,4164
2017-05-26T15:14:21.140Z,4084
2017-05-26T15:15:31.192Z,6416
2017-05-26T15:16:41.236Z,4132
2017-05-26T15:17:51.284Z,4368
2017-05-26T15:19:01.706Z,4436
2017-05-26T15:20:11.791Z,6560
2017-05-26T15:21:21.842Z,4392
2017-05-26T15:22:32.207Z,4572
2017-05-26T15:23:42.595Z,6680
2017-05-26T15:24:52.969Z,6836
2017-05-26T15:26:03.019Z,4836
2017-05-26T15:27:13.372Z,6784
2017-05-26T15:28:23.801Z,6884
2017-05-26T15:29:34.184Z,6724
2017-05-26T15:30:44.543Z,6796
2017-05-26T15:31:54.594Z,6920
2017-05-26T15:33:04.934Z,6680
2017-05-26T15:34:14.981Z,6948
2017-05-26T15:35:25.328Z,6824
2017-05-26T15:36:35.689Z,6756
2017-05-26T15:37:46.057Z,6712
2017-05-26T15:38:56.109Z,5184
2017-05-26T15:40:06.474Z,4772
2017-05-26T15:41:16.825Z,6324
2017-05-26T15:42:26.856Z,6332
2017-05-26T15:43:37.246Z,6144
2017-05-26T15:44:47.607Z,6060
2017-05-26T15:45:57.994Z,5992
2017-05-26T15:47:08.366Z,5980
2017-05-26T15:48:18.795Z,5972
2017-05-26T15:49:28.847Z,6116
2017-05-26T15:50:38.583Z,5976
2017-05-26T15:51:48.620Z,5772
2017-05-26T15:52:58.993Z,5160
2017-05-26T15:54:08.727Z,5148
2017-05-26T15:55:19.116Z,5040
2017-05-26T15:56:29.483Z,5088
2017-05-26T15:57:39.847Z,5280
2017-05-26T15:58:50.227Z,5472
2017-05-26T16:00:00.585Z,5468
2017-05-26T16:01:10.949Z,5088
2017-05-26T16:02:21.327Z,4052
2017-05-26T16:03:31.709Z,5220
2017-05-26T16:04:42.099Z,5296
2017-05-26T16:05:51.823Z,5444
2017-05-26T16:07:02.196Z,5324
2017-05-26T16:08:12.273Z,5220
2017-05-26T16:09:22.637Z,5004
2017-05-26T16:10:32.701Z,4740
2017-05-26T16:11:42.772Z,4776
2017-05-26T16:12:52.808Z,3904
2017-05-26T16:14:02.898Z,4012
2017-05-26T16:15:13.336Z,4520